Strona główna
METAR-TAF:

METAR-TAF

Lotnisko :

Calais, Francja

Szerokość geograficzna: 50-57-39N, Długość geograficzna: 001-57-05E, wysokość: 4 m

Aktualna obserwacja pogody

Raport powstał 5 godziny i 42 minut temu, godzina 20:00 UTC
Cisza
Temperatura 3°C
Wilgotność 70%
Ciśnienie 1031 hPa
Widzialność 10 km lub więcej
Brak chmur poniżej 1500 m i brak chmur cumulonimbus

METAR: LFAC 122000Z AUTO 00000KT CAVOK 03/M02 Q1031

czas: 03:42 (01:42 UTC)


TAF: brakujący

Obserwacja i prognoza pogody dla ponad 4000 lotnisk (raport METAR i TAF).

Dostępne stacje oznaczono żółtymi i czerwonymi punktami na mapie.

Najedź kursorem aby zobaczyć nazwę stacji.

Kliknij aby zobaczyć obserwacje i prognozy pogody.

Aby zmienić mapę: kliknij na zielony przycisk z czarnym krzyżykiem, aby powiększyć; na zielony przycisk z myślnikiem, aby pomniejszyć; na zielone strzałki, aby przejść do map sąsiednich.


METAR-TAF: